Time;durP1;ratioP1;P1;durP2;ratioP2;P2;SDS_P1;SDS_P2;PMS_P1;PMS_P2;Temp;Humidity;BMP_temperature;BMP_pressure;BME280_temperature;BME280_humidity;BME280_pressure;Samples;Min_cycle;Max_cycle;Signal;HPM_P1;HPM_P2
2023/08/27 00:00:41;;;;;;;3.75;2.38;;;;;;;16.58;81.04;100921.31;5095758;28;20039;-60
2023/08/27 00:03:07;;;;;;;3.42;2.10;;;;;;;16.53;82.46;100932.06;5095737;28;20111;-60
2023/08/27 00:05:32;;;;;;;4.25;2.30;;;;;;;16.45;83.64;100931.25;5095717;28;20059;-60
2023/08/27 00:07:58;;;;;;;3.78;2.33;;;;;;;16.38;84.14;100915.34;5095958;28;20073;-61
2023/08/27 00:10:23;;;;;;;4.43;2.63;;;;;;;16.40;84.10;100903.75;5095414;28;20028;-61
2023/08/27 00:12:48;;;;;;;3.40;2.30;;;;;;;16.34;84.02;100902.94;5095506;28;20031;-61
2023/08/27 00:15:14;;;;;;;6.88;2.30;;;;;;;16.34;84.78;100906.50;5095295;28;20208;-60
2023/08/27 00:17:39;;;;;;;2.92;2.22;;;;;;;16.27;84.62;100892.34;5095440;28;20032;-61
2023/08/27 00:20:09;;;;;;;4.32;2.13;;;;;;;16.21;85.23;100871.09;5095126;28;20473;-61
2023/08/27 00:22:35;;;;;;;5.68;2.22;;;;;;;16.26;85.32;100879.03;5095628;28;20081;-61
2023/08/27 00:25:00;;;;;;;3.67;2.15;;;;;;;16.35;85.03;100865.56;5095365;28;20028;-61
2023/08/27 00:27:26;;;;;;;5.15;2.20;;;;;;;16.40;84.59;100858.41;5095163;28;20050;-61
2023/08/27 00:29:51;;;;;;;3.55;2.13;;;;;;;16.44;85.54;100851.25;5095395;28;20050;-61
2023/08/27 00:32:17;;;;;;;2.63;1.85;;;;;;;16.51;85.11;100855.59;5095495;28;20026;-62
2023/08/27 00:34:43;;;;;;;2.53;1.90;;;;;;;16.55;84.71;100843.09;5095014;28;20024;-61
2023/08/27 00:37:08;;;;;;;3.00;2.00;;;;;;;16.69;84.18;100842.00;5095050;28;20024;-61
2023/08/27 00:39:35;;;;;;;3.97;2.05;;;;;;;16.81;83.75;100838.31;5095022;28;20366;-62
2023/08/27 00:42:01;;;;;;;3.67;2.22;;;;;;;16.65;83.48;100834.94;5094634;28;20047;-62
2023/08/27 00:44:27;;;;;;;4.60;2.10;;;;;;;16.72;83.86;100827.75;5094941;28;20025;-61
2023/08/27 00:46:53;;;;;;;4.18;2.20;;;;;;;16.72;83.98;100823.31;5094993;28;20024;-60
2023/08/27 00:49:19;;;;;;;3.17;1.90;;;;;;;16.67;84.06;100821.59;5094751;28;20467;-62
2023/08/27 00:51:46;;;;;;;4.78;2.00;;;;;;;16.58;84.36;100822.59;5095268;28;20024;-61
2023/08/27 00:54:12;;;;;;;4.00;2.08;;;;;;;16.47;85.14;100812.06;5094964;28;20043;-61
2023/08/27 00:56:45;;;;;;;3.38;2.10;;;;;;;16.46;85.33;100814.78;5094492;28;20377;-62
2023/08/27 00:59:12;;;;;;;4.47;2.20;;;;;;;16.41;86.15;100819.28;5094622;28;20020;-62
2023/08/27 01:01:38;;;;;;;3.67;2.13;;;;;;;16.31;86.42;100822.97;5094806;28;20103;-61
2023/08/27 01:04:04;;;;;;;5.93;2.42;;;;;;;16.33;86.62;100822.06;5094521;28;20038;-61
2023/08/27 01:06:30;;;;;;;4.15;2.03;;;;;;;16.37;86.26;100815.78;5094542;28;20410;-61
2023/08/27 01:09:18;;;;;;;4.97;2.17;;;;;;;16.41;86.52;100817.50;5094717;28;20028;-61
2023/08/27 01:12:03;;;;;;;3.35;2.20;;;;;;;16.35;86.41;100830.03;5094385;28;20032;-61
2023/08/27 01:14:34;;;;;;;3.45;1.90;;;;;;;16.31;86.67;100825.63;5075814;28;20026;-62
2023/08/27 01:17:03;;;;;;;4.80;2.15;;;;;;;16.27;86.72;100807.03;5094064;28;20412;-61
2023/08/27 01:19:29;;;;;;;3.95;2.20;;;;;;;16.25;86.92;100813.28;5093994;28;20489;-61
2023/08/27 01:21:54;;;;;;;4.28;2.40;;;;;;;16.17;87.76;100808.03;5093947;28;20052;-61
2023/08/27 01:24:20;;;;;;;4.90;2.35;;;;;;;16.09;88.29;100811.69;5094417;28;20028;-62
2023/08/27 01:26:47;;;;;;;6.50;2.60;;;;;;;16.01;88.60;100809.13;5093875;28;20487;-61
2023/08/27 01:29:33;;;;;;;4.20;2.20;;;;;;;15.97;88.79;100802.97;5076008;28;20028;-62
2023/08/27 01:32:23;;;;;;;4.40;2.20;;;;;;;15.92;89.03;100807.44;5094341;28;20105;-62
2023/08/27 01:34:48;;;;;;;4.32;2.38;;;;;;;15.90;89.13;100811.06;5093869;28;20536;-62
2023/08/27 01:37:14;;;;;;;4.38;2.30;;;;;;;15.90;89.07;100805.72;5094285;28;20078;-60
2023/08/27 01:39:44;;;;;;;5.00;2.20;;;;;;;15.93;89.29;100801.25;5093793;28;20465;-63
2023/08/27 01:42:11;;;;;;;3.65;2.20;;;;;;;15.94;88.42;100800.34;5093914;28;20028;-62
2023/08/27 01:44:36;;;;;;;4.63;2.60;;;;;;;15.95;88.81;100810.09;5093577;28;20024;-62
2023/08/27 01:47:03;;;;;;;3.63;2.30;;;;;;;15.99;88.42;100805.59;5093936;28;20034;-62
2023/08/27 01:49:28;;;;;;;3.92;2.42;;;;;;;16.02;88.51;100803.78;5093905;28;20119;-61
2023/08/27 01:51:54;;;;;;;3.53;2.30;;;;;;;16.09;88.40;100809.03;5092845;28;20059;-62
2023/08/27 01:54:19;;;;;;;5.60;2.40;;;;;;;16.09;88.00;100790.38;5093555;28;20078;-63
2023/08/27 01:56:44;;;;;;;4.15;2.70;;;;;;;16.08;88.61;100793.94;5093196;28;20030;-61
2023/08/27 01:59:10;;;;;;;4.13;2.50;;;;;;;16.10;88.15;100800.13;5093287;28;20020;-62
2023/08/27 02:01:35;;;;;;;3.72;2.47;;;;;;;16.15;88.68;100796.53;5093303;28;20509;-62
2023/08/27 02:04:01;;;;;;;3.78;2.70;;;;;;;16.00;88.82;100800.25;5093494;28;20031;-62
2023/08/27 02:06:26;;;;;;;4.65;2.35;;;;;;;16.00;89.71;100789.59;5093450;28;20036;-63
2023/08/27 02:08:51;;;;;;;4.57;2.47;;;;;;;16.10;89.11;100793.03;5093401;28;20084;-62
2023/08/27 02:11:17;;;;;;;7.47;2.50;;;;;;;16.11;88.97;100786.81;5093088;28;20039;-63
2023/08/27 02:13:42;;;;;;;4.55;2.50;;;;;;;16.21;88.82;100793.75;5075179;28;20032;-63
2023/08/27 02:16:08;;;;;;;4.15;2.50;;;;;;;16.17;88.65;100797.38;5093200;28;20029;-63
2023/08/27 02:18:33;;;;;;;4.03;2.80;;;;;;;16.05;89.08;100786.88;5093238;28;20050;-62
2023/08/27 02:20:58;;;;;;;4.18;2.70;;;;;;;15.93;89.84;100793.25;5092782;28;20119;-62
2023/08/27 02:23:24;;;;;;;3.55;2.38;;;;;;;15.82;90.42;100795.16;5093256;28;20032;-62
2023/08/27 02:25:49;;;;;;;3.78;2.50;;;;;;;15.72;91.20;100790.84;5092844;28;20028;-62
2023/08/27 02:28:14;;;;;;;3.42;2.67;;;;;;;15.69;91.72;100788.19;5092916;28;20036;-62
2023/08/27 02:30:40;;;;;;;4.53;2.60;;;;;;;15.64;91.60;100787.34;5092840;28;20021;-61
2023/08/27 02:33:05;;;;;;;3.47;2.47;;;;;;;15.62;92.35;100798.00;5092876;28;20030;-63
2023/08/27 02:35:31;;;;;;;5.40;2.45;;;;;;;15.62;92.04;100794.44;5093051;28;20031;-61
2023/08/27 02:37:56;;;;;;;3.60;2.40;;;;;;;15.66;91.99;100782.91;5093367;28;20021;-62
2023/08/27 02:40:21;;;;;;;4.65;2.50;;;;;;;15.65;92.20;100799.78;5092825;28;20481;-62
2023/08/27 02:42:47;;;;;;;4.28;2.50;;;;;;;15.60;92.57;100812.25;5092932;28;20025;-62
2023/08/27 02:45:12;;;;;;;4.13;2.70;;;;;;;15.52;93.44;100809.66;5093067;28;20024;-61
2023/08/27 02:47:38;;;;;;;6.05;2.65;;;;;;;15.52;94.53;100804.31;5092907;28;20032;-62
2023/08/27 02:50:04;;;;;;;4.00;2.70;;;;;;;15.43;95.05;100799.97;5092941;28;20024;-62
2023/08/27 02:52:29;;;;;;;4.90;2.70;;;;;;;15.27;95.99;100809.88;5093175;28;20024;-62
2023/08/27 02:54:55;;;;;;;4.20;2.88;;;;;;;15.20;97.16;100825.91;5092921;28;20531;-62
2023/08/27 02:57:20;;;;;;;4.95;2.72;;;;;;;15.18;98.11;100806.44;5093324;28;20109;-62
2023/08/27 02:59:46;;;;;;;7.15;3.00;;;;;;;15.12;99.14;100807.38;5092845;28;20028;-61
2023/08/27 03:02:11;;;;;;;4.95;2.80;;;;;;;15.15;98.86;100788.69;5092734;28;20077;-61
2023/08/27 03:04:36;;;;;;;6.45;2.85;;;;;;;15.19;99.05;100779.78;5095832;28;20149;-62
2023/08/27 03:07:02;;;;;;;5.78;3.00;;;;;;;15.28;98.20;100795.66;5096917;28;20500;-61
2023/08/27 03:09:27;;;;;;;4.18;3.05;;;;;;;15.35;98.01;100798.28;5096866;28;20028;-62
2023/08/27 03:11:52;;;;;;;6.25;2.90;;;;;;;15.39;98.22;100797.34;5096726;28;20397;-61
2023/08/27 03:14:18;;;;;;;6.60;3.10;;;;;;;15.42;98.40;100802.66;5096755;28;20027;-62
2023/08/27 03:16:43;;;;;;;5.15;2.92;;;;;;;15.48;97.69;100805.25;5096644;28;20377;-61
2023/08/27 03:19:09;;;;;;;5.03;2.55;;;;;;;15.61;97.16;100803.34;5096883;28;20122;-61
2023/08/27 03:21:35;;;;;;;5.40;3.10;;;;;;;15.54;97.34;100805.19;5096299;28;20051;-61
2023/08/27 03:24:00;;;;;;;5.43;3.17;;;;;;;15.50;97.62;100803.44;5096648;28;20024;-62
2023/08/27 03:26:26;;;;;;;5.45;3.10;;;;;;;15.50;97.84;100815.00;5096690;28;20153;-62
2023/08/27 03:28:51;;;;;;;5.25;2.83;;;;;;;15.47;97.83;100817.69;5078291;28;20381;-62
2023/08/27 03:31:16;;;;;;;6.03;3.10;;;;;;;15.49;97.74;100812.34;5096379;28;20077;-62
2023/08/27 03:33:42;;;;;;;3.92;3.00;;;;;;;15.47;98.22;100814.16;5096386;28;20393;-62
2023/08/27 03:36:08;;;;;;;5.75;3.10;;;;;;;15.49;98.37;100822.97;5096514;28;20162;-62
2023/08/27 03:38:33;;;;;;;4.28;2.88;;;;;;;15.49;97.99;100820.31;5096393;28;20502;-62
2023/08/27 03:40:59;;;;;;;4.03;2.70;;;;;;;15.46;98.45;100831.00;5096126;28;20035;-61
2023/08/27 03:43:24;;;;;;;5.30;2.67;;;;;;;15.40;98.60;100818.63;5096242;28;20024;-61
2023/08/27 03:45:49;;;;;;;4.53;3.15;;;;;;;15.46;98.89;100812.34;5095836;28;20501;-62
2023/08/27 03:48:15;;;;;;;4.18;3.08;;;;;;;15.42;99.30;100805.31;5096334;28;20039;-62
2023/08/27 03:50:40;;;;;;;7.72;3.15;;;;;;;15.43;99.48;100797.31;5095995;28;20057;-63
2023/08/27 03:53:07;;;;;;;7.72;3.10;;;;;;;15.48;99.38;100795.47;5096030;28;20059;-62
2023/08/27 03:55:42;;;;;;;4.15;2.90;;;;;;;15.49;98.77;100786.59;5095958;28;20070;-62
2023/08/27 03:58:08;;;;;;;4.75;2.70;;;;;;;15.50;97.35;100787.47;5096171;28;20393;-61
2023/08/27 04:00:34;;;;;;;7.05;3.10;;;;;;;15.41;98.32;100784.91;5095825;28;20038;-63
2023/08/27 04:03:01;;;;;;;7.82;3.50;;;;;;;15.43;98.31;100781.34;5095784;28;20020;-64
2023/08/27 04:05:26;;;;;;;5.38;2.95;;;;;;;15.51;97.96;100773.28;5095882;28;20060;-62
2023/08/27 04:07:51;;;;;;;4.47;2.67;;;;;;;15.59;97.95;100773.16;5095799;28;20051;-62
2023/08/27 04:10:17;;;;;;;6.47;2.80;;;;;;;15.55;97.47;100764.34;5095608;28;20039;-62
2023/08/27 04:12:42;;;;;;;4.07;2.63;;;;;;;15.61;97.27;100766.06;5095497;28;20020;-63
2023/08/27 04:15:08;;;;;;;5.03;2.83;;;;;;;15.65;97.32;100767.81;5094289;28;20036;-62
2023/08/27 04:17:33;;;;;;;6.32;2.78;;;;;;;15.64;97.39;100768.69;5077626;28;20500;-63
2023/08/27 04:19:59;;;;;;;4.63;2.90;;;;;;;15.64;97.48;100776.69;5095543;28;20385;-62
2023/08/27 04:22:24;;;;;;;5.32;2.90;;;;;;;15.70;97.69;100777.50;5095480;28;20043;-63
2023/08/27 04:24:50;;;;;;;4.90;2.92;;;;;;;15.70;97.44;100780.19;5095421;28;20405;-63
2023/08/27 04:27:16;;;;;;;4.70;2.70;;;;;;;15.71;97.70;100787.25;5095195;28;20028;-62
2023/08/27 04:29:42;;;;;;;6.25;2.97;;;;;;;15.63;98.04;100780.22;5095291;28;20024;-62
2023/08/27 04:32:07;;;;;;;5.03;2.67;;;;;;;15.65;98.16;100782.00;5095181;28;20043;-62
2023/08/27 04:34:33;;;;;;;5.00;2.60;;;;;;;15.67;97.87;100780.22;5095156;28;20086;-62
2023/08/27 04:37:00;;;;;;;5.25;2.70;;;;;;;15.69;98.19;100777.53;5095178;28;20024;-62
2023/08/27 04:39:26;;;;;;;5.57;2.85;;;;;;;15.83;97.96;100790.69;5095384;28;20032;-63
2023/08/27 04:41:52;;;;;;;3.47;2.60;;;;;;;15.92;97.28;100780.81;5095267;28;20051;-62
2023/08/27 04:44:17;;;;;;;5.20;2.65;;;;;;;15.92;96.93;100782.59;5095001;28;20531;-62
2023/08/27 04:46:43;;;;;;;3.63;2.40;;;;;;;15.94;96.21;100787.00;5094808;28;20052;-62
2023/08/27 04:49:08;;;;;;;4.50;2.40;;;;;;;15.97;96.27;100796.72;5094959;28;20028;-63
2023/08/27 04:51:34;;;;;;;4.18;3.00;;;;;;;15.89;96.22;100794.19;5094704;28;20482;-61
2023/08/27 04:54:01;;;;;;;4.80;2.88;;;;;;;15.90;96.71;100789.72;5094743;28;20017;-63
2023/08/27 04:56:27;;;;;;;6.43;3.35;;;;;;;15.91;96.31;100791.50;5094300;28;20035;-62
2023/08/27 04:58:53;;;;;;;7.07;3.20;;;;;;;15.90;96.40;100787.06;5076547;28;20028;-63
2023/08/27 05:01:18;;;;;;;6.10;3.03;;;;;;;15.88;96.35;100792.41;5094449;28;20506;-62
2023/08/27 05:03:43;;;;;;;4.72;2.90;;;;;;;15.82;96.45;100792.47;5094450;28;20170;-62
2023/08/27 05:06:09;;;;;;;4.60;2.92;;;;;;;15.72;97.38;100797.03;5094552;28;20119;-62
2023/08/27 05:08:34;;;;;;;7.10;2.95;;;;;;;15.67;98.01;100812.19;5094165;28;20035;-62
2023/08/27 05:10:59;;;;;;;5.00;3.00;;;;;;;15.59;98.54;100810.44;5094374;28;20024;-62
2023/08/27 05:13:26;;;;;;;5.05;2.83;;;;;;;15.57;98.81;100813.13;5094179;28;20400;-62
2023/08/27 05:15:51;;;;;;;4.20;2.72;;;;;;;15.61;98.58;100812.22;5093996;28;20036;-62
2023/08/27 05:18:17;;;;;;;6.10;2.63;;;;;;;15.56;98.97;100811.38;5094146;28;20066;-62
2023/08/27 05:20:44;;;;;;;5.45;2.95;;;;;;;15.54;99.26;100799.84;5093674;28;20048;-63
2023/08/27 05:23:10;;;;;;;5.15;2.83;;;;;;;15.56;99.70;100802.53;5094321;28;20058;-62
2023/08/27 05:25:35;;;;;;;4.88;2.97;;;;;;;15.66;99.56;100804.22;5093687;28;20548;-62
2023/08/27 05:28:01;;;;;;;5.22;2.83;;;;;;;15.79;98.80;100808.50;5094067;28;20039;-62
2023/08/27 05:30:27;;;;;;;6.30;2.70;;;;;;;15.86;98.09;100804.00;5093867;28;20047;-62
2023/08/27 05:32:53;;;;;;;4.40;2.67;;;;;;;15.88;98.51;100794.19;5094036;28;20108;-62
2023/08/27 05:35:18;;;;;;;6.57;2.97;;;;;;;15.94;98.36;100797.66;5093633;28;20024;-62
2023/08/27 05:37:44;;;;;;;7.15;3.13;;;;;;;15.99;98.05;100792.28;5093557;28;20039;-62
2023/08/27 05:40:09;;;;;;;5.68;2.97;;;;;;;16.02;97.62;100806.47;5093577;28;20027;-62
2023/08/27 05:42:35;;;;;;;4.88;2.55;;;;;;;15.99;97.70;100811.81;5093435;28;20573;-62
2023/08/27 05:45:03;;;;;;;6.40;2.75;;;;;;;16.01;98.07;100809.13;5093643;28;20034;-62
2023/08/27 05:47:28;;;;;;;7.75;2.95;;;;;;;15.98;97.83;100803.84;5093586;28;20028;-63
2023/08/27 05:49:54;;;;;;;4.38;2.95;;;;;;;16.02;97.90;100798.47;5093536;28;20027;-61
2023/08/27 05:52:20;;;;;;;4.18;2.80;;;;;;;16.02;98.10;100802.91;5093570;28;20032;-62
2023/08/27 05:54:45;;;;;;;5.25;3.00;;;;;;;15.94;98.21;100802.13;5093520;28;20028;-63
2023/08/27 05:57:10;;;;;;;4.72;2.90;;;;;;;15.90;99.05;100803.06;5093067;28;20049;-63
2023/08/27 05:59:36;;;;;;;5.03;2.70;;;;;;;15.90;98.93;100801.28;5093286;28;20016;-62
2023/08/27 06:02:02;;;;;;;5.38;3.05;;;;;;;15.86;99.28;100791.53;5093415;28;20164;-63
2023/08/27 06:04:28;;;;;;;7.63;3.22;;;;;;;15.91;99.59;100789.72;5093132;28;20035;-62
2023/08/27 06:06:53;;;;;;;6.30;3.30;;;;;;;15.94;99.62;100791.47;5093153;28;20021;-63
2023/08/27 06:09:18;;;;;;;5.80;3.40;;;;;;;15.88;99.09;100792.41;5092945;28;20056;-63
2023/08/27 06:11:44;;;;;;;5.93;3.45;;;;;;;15.84;99.36;100793.34;5092945;28;20417;-62
2023/08/27 06:14:09;;;;;;;7.97;3.78;;;;;;;15.87;99.49;100785.31;5092988;28;20091;-62
2023/08/27 06:16:34;;;;;;;6.85;3.67;;;;;;;15.88;99.14;100788.84;5093001;28;20024;-63
2023/08/27 06:19:00;;;;;;;6.35;4.00;;;;;;;16.06;99.27;100782.41;5093108;28;20024;-63
2023/08/27 06:21:25;;;;;;;7.00;4.07;;;;;;;16.26;99.33;100780.38;5092741;28;20121;-63
2023/08/27 06:23:51;;;;;;;7.78;3.80;;;;;;;16.33;98.53;100783.84;5092878;28;20028;-62
2023/08/27 06:26:16;;;;;;;11.77;3.53;;;;;;;16.26;98.07;100773.25;5092714;28;20103;-63
2023/08/27 06:28:41;;;;;;;8.00;3.33;;;;;;;16.21;98.47;100776.88;5092714;28;20028;-62
2023/08/27 06:31:07;;;;;;;5.80;3.42;;;;;;;16.24;98.89;100774.19;5092772;28;20024;-63
2023/08/27 06:33:32;;;;;;;7.45;3.67;;;;;;;16.26;98.08;100778.59;5092934;28;20027;-61
2023/08/27 06:35:58;;;;;;;8.90;3.20;;;;;;;16.29;98.14;100777.66;5092570;28;20035;-63
2023/08/27 06:38:24;;;;;;;6.20;3.33;;;;;;;16.39;98.38;100776.63;5092211;28;20031;-61
2023/08/27 06:40:49;;;;;;;5.63;3.30;;;;;;;16.58;97.94;100779.94;5092750;28;20154;-62
2023/08/27 06:43:15;;;;;;;5.32;3.22;;;;;;;16.76;96.79;100777.00;5092997;28;20040;-62
2023/08/27 06:45:40;;;;;;;5.50;3.00;;;;;;;16.81;95.02;100781.38;5092182;28;20059;-62
2023/08/27 06:48:05;;;;;;;5.03;3.45;;;;;;;16.85;95.40;100777.75;5092553;28;20156;-62
2023/08/27 06:50:31;;;;;;;5.07;3.60;;;;;;;16.85;95.74;100781.31;5092448;28;20032;-63
2023/08/27 06:52:56;;;;;;;6.57;3.47;;;;;;;16.91;94.39;100777.66;5092556;28;20480;-62
2023/08/27 06:55:21;;;;;;;5.93;3.45;;;;;;;17.03;94.21;100782.78;5092439;28;20024;-63
2023/08/27 06:57:47;;;;;;;4.90;3.20;;;;;;;17.07;94.11;100789.84;5092353;28;20105;-62
2023/08/27 07:00:13;;;;;;;6.93;3.55;;;;;;;17.10;93.98;100780.91;5092693;28;20021;-62
2023/08/27 07:02:38;;;;;;;10.55;3.75;;;;;;;17.28;94.42;100773.44;5092479;28;20024;-62
2023/08/27 07:05:10;;;;;;;7.63;3.80;;;;;;;17.40;93.60;100777.69;5092509;28;20063;-62
2023/08/27 07:07:37;;;;;;;6.88;3.25;;;;;;;17.50;93.47;100781.06;5092696;28;20024;-61
2023/08/27 07:10:04;;;;;;;9.73;3.30;;;;;;;17.61;93.84;100784.44;5074667;28;20028;-61
2023/08/27 07:12:34;;;;;;;6.30;3.50;;;;;;;17.84;92.84;100789.34;5092397;28;20040;-62
2023/08/27 07:15:00;;;;;;;4.07;2.97;;;;;;;18.09;91.23;100787.03;5092102;28;20401;-63
2023/08/27 07:17:26;;;;;;;7.10;3.40;;;;;;;18.26;89.85;100792.91;5092567;28;20036;-62
2023/08/27 07:19:51;;;;;;;6.18;3.28;;;;;;;18.30;88.24;100780.34;5092378;28;20367;-63
2023/08/27 07:22:17;;;;;;;9.88;3.50;;;;;;;18.46;89.87;100787.13;5092083;28;20123;-62
2023/08/27 07:24:42;;;;;;;6.18;3.20;;;;;;;18.59;87.89;100790.41;5057374;28;20448;-62
2023/08/27 07:27:09;;;;;;;8.88;3.45;;;;;;;18.50;86.62;100785.28;5092339;28;20036;-62
2023/08/27 07:29:35;;;;;;;8.57;3.53;;;;;;;18.57;87.71;100781.53;5092361;28;20081;-62
2023/08/27 07:32:00;;;;;;;5.97;3.28;;;;;;;18.77;86.74;100781.97;5092223;28;20032;-63
2023/08/27 07:34:25;;;;;;;7.28;3.58;;;;;;;18.81;84.71;100790.81;5092121;28;20036;-62
2023/08/27 07:36:53;;;;;;;6.00;3.50;;;;;;;18.96;85.67;100787.75;5092357;28;20114;-62
2023/08/27 07:39:18;;;;;;;9.35;3.72;;;;;;;18.96;83.82;100798.44;5091994;28;20472;-62
2023/08/27 07:41:44;;;;;;;6.72;3.50;;;;;;;19.08;85.39;100783.88;5092103;28;20055;-62
2023/08/27 07:44:09;;;;;;;6.65;3.60;;;;;;;19.02;83.55;100787.59;5092116;28;20027;-63
2023/08/27 07:46:34;;;;;;;7.18;3.70;;;;;;;19.05;82.98;100797.34;5091901;28;20035;-62
2023/08/27 07:49:00;;;;;;;11.40;3.58;;;;;;;19.14;82.19;100796.22;5092004;28;20154;-62
2023/08/27 07:51:25;;;;;;;7.63;3.70;;;;;;;19.06;81.97;100791.09;5094178;28;20032;-62
2023/08/27 07:53:51;;;;;;;8.82;3.50;;;;;;;19.20;83.46;100790.72;5095637;28;20032;-62
2023/08/27 07:56:16;;;;;;;11.45;3.72;;;;;;;19.29;83.04;100781.56;5095199;28;20032;-61
2023/08/27 07:58:42;;;;;;;7.50;3.70;;;;;;;19.38;83.24;100781.34;5095720;28;20035;-63
2023/08/27 08:01:07;;;;;;;9.07;3.50;;;;;;;19.54;82.65;100788.03;5095488;28;20396;-62
2023/08/27 08:03:33;;;;;;;8.85;3.72;;;;;;;19.77;82.07;100788.31;5077496;28;20401;-63
2023/08/27 08:05:58;;;;;;;7.75;3.67;;;;;;;20.04;82.54;100776.81;5095263;28;20016;-61
2023/08/27 08:08:24;;;;;;;8.98;3.95;;;;;;;20.03;81.37;100786.69;5095411;28;20028;-62
2023/08/27 08:10:54;;;;;;;8.52;3.85;;;;;;;20.20;79.34;100788.88;5095444;28;20075;-62
2023/08/27 08:13:19;;;;;;;8.55;3.58;;;;;;;20.23;78.24;100778.06;5095402;28;20496;-62
2023/08/27 08:15:47;;;;;;;5.47;3.50;;;;;;;20.30;76.10;100784.09;5094952;28;20020;-62
2023/08/27 08:18:12;;;;;;;9.07;3.63;;;;;;;20.37;77.38;100780.31;5095201;28;20129;-63
2023/08/27 08:20:39;;;;;;;6.85;3.38;;;;;;;20.23;75.21;100781.59;5095302;28;20110;-61
2023/08/27 08:23:04;;;;;;;6.20;3.28;;;;;;;20.26;74.37;100786.91;5095175;28;20074;-61
2023/08/27 08:25:31;;;;;;;9.77;3.65;;;;;;;20.23;74.40;100781.59;5095020;28;20024;-62
2023/08/27 08:27:56;;;;;;;7.90;3.40;;;;;;;20.29;74.75;100779.66;5095042;28;20089;-62
2023/08/27 08:30:22;;;;;;;6.47;3.83;;;;;;;20.37;76.49;100781.19;5095090;28;20097;-63
2023/08/27 08:32:47;;;;;;;8.35;3.67;;;;;;;20.62;74.04;100797.44;5094779;28;20035;-62
2023/08/27 08:35:13;;;;;;;9.68;3.45;;;;;;;20.81;72.66;100786.09;5094835;28;20025;-62
2023/08/27 08:37:38;;;;;;;8.27;3.33;;;;;;;21.00;72.30;100790.84;5095076;28;20032;-62
2023/08/27 08:40:04;;;;;;;7.63;3.10;;;;;;;20.99;69.77;100794.47;5094779;28;20074;-62
2023/08/27 08:42:36;;;;;;;6.50;3.00;;;;;;;20.70;69.69;100784.66;5094606;28;20024;-61
2023/08/27 08:45:29;;;;;;;8.33;3.57;;;;;;;20.79;73.03;100790.66;5094505;28;20028;-61
2023/08/27 08:47:56;;;;;;;5.40;3.13;;;;;;;20.92;71.05;100795.56;5094734;28;20032;-62
2023/08/27 08:50:22;;;;;;;7.22;3.10;;;;;;;21.04;71.11;100786.25;5094627;28;20095;-62
2023/08/27 08:52:49;;;;;;;8.07;3.20;;;;;;;21.41;68.44;100795.75;5094801;28;20067;-62
2023/08/27 08:55:16;;;;;;;6.70;3.30;;;;;;;21.65;68.63;100791.34;5094528;28;20063;-62
2023/08/27 08:58:03;;;;;;;7.22;3.30;;;;;;;21.62;68.92;100786.06;5094635;28;20039;-62
2023/08/27 09:00:29;;;;;;;6.18;3.10;;;;;;;21.32;68.08;100788.00;5094361;28;20523;-62
2023/08/27 09:02:56;;;;;;;7.72;3.33;;;;;;;20.79;67.79;100783.47;5093943;28;20529;-62
2023/08/27 09:05:22;;;;;;;10.68;3.80;;;;;;;20.88;70.30;100776.94;5094264;28;20024;-62
2023/08/27 09:07:49;;;;;;;7.65;3.13;;;;;;;21.02;69.73;100772.84;5094224;28;20423;-61
2023/08/27 09:10:15;;;;;;;7.85;3.42;;;;;;;21.05;66.90;100763.81;5094207;28;20039;-61
2023/08/27 09:12:41;;;;;;;7.53;3.20;;;;;;;21.32;66.76;100764.69;5094226;28;20386;-62
2023/08/27 09:15:10;;;;;;;6.80;3.20;;;;;;;21.39;66.67;100765.38;5093748;28;20130;-62
2023/08/27 09:17:39;;;;;;;5.63;2.75;;;;;;;21.38;63.50;100777.06;5094107;28;20035;-61
2023/08/27 09:20:05;;;;;;;7.50;3.00;;;;;;;21.65;66.11;100753.69;5093995;28;20028;-62
2023/08/27 09:22:33;;;;;;;6.78;2.95;;;;;;;21.62;64.93;100748.41;5093749;28;20081;-61
2023/08/27 09:24:58;;;;;;;5.95;2.85;;;;;;;21.49;61.79;100750.66;5075983;28;20039;-61
2023/08/27 09:27:24;;;;;;;6.07;2.97;;;;;;;21.56;63.31;100751.31;5093668;28;20024;-61
2023/08/27 09:29:51;;;;;;;8.00;2.80;;;;;;;21.66;61.38;100759.00;5093788;28;20027;-61
2023/08/27 09:32:23;;;;;;;5.30;2.30;;;;;;;21.85;59.78;100743.06;5093633;28;20024;-61
2023/08/27 09:34:56;;;;;;;4.60;2.40;;;;;;;21.76;60.64;100746.09;5075614;28;20032;-62
2023/08/27 09:37:21;;;;;;;5.15;2.50;;;;;;;21.70;61.18;100743.63;5093691;28;20035;-62
2023/08/27 09:39:49;;;;;;;7.57;2.70;;;;;;;21.54;62.21;100742.44;5075605;28;20385;-61
2023/08/27 09:42:15;;;;;;;9.52;2.60;;;;;;;21.56;61.79;100741.44;5093622;28;20020;-61
2023/08/27 09:44:48;;;;;;;8.68;2.65;;;;;;;21.60;60.86;100735.03;5092832;28;20415;-63
2023/08/27 09:47:14;;;;;;;6.07;2.50;;;;;;;21.26;59.83;100740.69;5093676;28;20385;-62
2023/08/27 09:49:42;;;;;;;6.80;2.10;;;;;;;21.08;61.55;100733.28;5093335;28;20039;-61
2023/08/27 09:52:07;;;;;;;10.02;2.60;;;;;;;20.85;61.33;100726.88;5093027;28;20120;-62
2023/08/27 09:54:33;;;;;;;7.63;2.55;;;;;;;20.63;61.79;100726.69;5098406;28;20110;-61
2023/08/27 09:57:01;;;;;;;6.00;2.40;;;;;;;20.66;63.35;100726.59;5101904;28;20028;-61
2023/08/27 09:59:27;;;;;;;6.25;2.60;;;;;;;21.07;64.75;100728.81;5102698;28;20035;-63
2023/08/27 10:01:53;;;;;;;7.63;2.63;;;;;;;21.27;62.82;100723.63;5103802;28;20043;-63
2023/08/27 10:04:19;;;;;;;7.00;2.47;;;;;;;21.45;63.02;100730.19;5103575;28;20024;-61
2023/08/27 10:06:45;;;;;;;7.80;2.90;;;;;;;21.39;62.88;100731.31;5103340;28;20012;-62
2023/08/27 10:09:11;;;;;;;8.45;2.63;;;;;;;21.50;63.77;100733.63;5101643;28;20118;-63
2023/08/27 10:11:37;;;;;;;10.40;2.42;;;;;;;21.61;62.75;100739.47;5103415;28;20055;-62
2023/08/27 10:14:04;;;;;;;7.55;2.63;;;;;;;21.73;60.54;100740.84;5083046;28;20044;-62
2023/08/27 10:16:30;;;;;;;7.13;2.70;;;;;;;21.77;61.67;100734.41;5104068;28;20027;-62
2023/08/27 10:18:57;;;;;;;8.23;3.00;;;;;;;21.73;61.56;100738.13;5101389;28;20020;-62
2023/08/27 10:21:23;;;;;;;6.05;2.65;;;;;;;21.80;61.26;100741.47;5106980;28;20054;-62
2023/08/27 10:23:48;;;;;;;7.07;2.60;;;;;;;21.92;62.01;100736.50;5113216;28;20469;-62
2023/08/27 10:26:14;;;;;;;6.13;2.47;;;;;;;22.10;60.41;100734.03;5113065;28;20027;-61
2023/08/27 10:28:41;;;;;;;5.25;2.30;;;;;;;22.49;58.28;100732.50;5113290;28;20070;-61
2023/08/27 10:31:07;;;;;;;7.68;2.70;;;;;;;22.53;58.87;100735.09;5112990;28;20023;-61
2023/08/27 10:33:33;;;;;;;6.35;2.20;;;;;;;22.47;57.94;100722.72;5113359;28;20023;-61
2023/08/27 10:36:08;;;;;;;6.72;2.10;;;;;;;22.35;59.34;100737.56;5112802;28;20162;-60
2023/08/27 10:38:36;;;;;;;5.82;2.22;;;;;;;22.79;59.48;100724.13;5113251;28;20032;-61
2023/08/27 10:41:03;;;;;;;7.75;2.40;;;;;;;22.84;57.66;100724.78;5112802;28;20055;-61
2023/08/27 10:43:37;;;;;;;5.93;2.30;;;;;;;22.68;57.04;100731.75;5094806;28;20031;-61
2023/08/27 10:46:10;;;;;;;5.57;2.20;;;;;;;22.45;57.71;100727.31;5113009;28;20031;-61
2023/08/27 10:48:37;;;;;;;6.15;2.22;;;;;;;22.05;58.53;100734.22;5113193;28;20106;-60
2023/08/27 10:51:11;;;;;;;7.82;2.33;;;;;;;21.82;58.65;100729.72;5112929;28;20498;-62
2023/08/27 10:53:49;;;;;;;4.50;2.20;;;;;;;21.62;60.04;100727.75;5112882;28;20185;-61
2023/08/27 10:56:36;;;;;;;4.55;1.90;;;;;;;21.58;58.97;100728.81;5112834;28;20039;-60
2023/08/27 10:59:09;;;;;;;6.30;2.10;;;;;;;21.89;59.58;100733.06;5112823;28;20024;-62
2023/08/27 11:01:37;;;;;;;6.82;2.30;;;;;;;22.13;58.65;100731.28;5112634;28;20028;-61
2023/08/27 11:04:06;;;;;;;5.88;2.25;;;;;;;22.14;57.38;100727.63;5112764;28;20487;-61
2023/08/27 11:06:45;;;;;;;5.43;2.20;;;;;;;22.00;56.95;100731.69;5112991;28;20065;-61
2023/08/27 11:09:36;;;;;;;4.20;2.10;;;;;;;22.28;58.75;100729.81;5113088;28;20028;-62
2023/08/27 11:12:03;;;;;;;6.53;2.30;;;;;;;22.43;56.88;100735.44;5112742;28;20032;-60
2023/08/27 11:14:35;;;;;;;4.80;2.40;;;;;;;22.61;57.53;100732.94;5095243;28;20485;-62
2023/08/27 11:17:03;;;;;;;8.23;2.40;;;;;;;22.81;56.37;100722.22;5092257;28;20020;-61
2023/08/27 11:19:36;;;;;;;6.15;2.20;;;;;;;22.84;57.63;100734.69;5092571;28;20104;-62
2023/08/27 11:22:13;;;;;;;5.68;2.03;;;;;;;22.58;56.79;100744.72;5091948;28;20144;-60